»·PEaware :: WAT292 KSBD-KAVX

WAT292 :: KSBD-KAVX

FLIGHT INFORMATION

Flight Status: Arrived
Operator: Unknown
More flights by this operator :: More flights under this callsign
Pilot: Dan C. (28231)
Aircraft: BEECH AIRCRAFT PREMIER
(PRM1)
More flights by this aircraft type
Origin: KSBD San Bernardino Intl
United States
Destination: KAVX Catalina
United States
More flights between these airports :: More routes between these airports
Route: +PDZ V16 PRADO V363 DANAH SXC065 SXC
File this flight plan on PilotEdge
Remarks: ONTP8
Altitude:
(Current/Filed)
7,000ft
Speed:
(Current/Filed)
360kts
Departed: 16-Jul-20 02:17 PM
Arrived: 16-Jul-20 02:40 PM
Distance/Time
Traveled:
72nm/0:23
Distance/Time
To Go:
Arrived

Flight Plot

Page will automatically refresh every two minutes.


Map Options




Map Legend


Flown Route
Filed Route
Departure Airport
Arrival Airport
Navaid (VOR, NDB)
Fix

Horizontal Profiles

Position Reports

Time Latitude Longitude Heading Altitude Ground
Speed
16-Jul-20 13:39 34.102425 -117.224717 93 1164ft 0kts
16-Jul-20 13:40 34.102425 -117.224717 93 1164ft 0kts
16-Jul-20 13:41 34.102425 -117.224717 93 1164ft 0kts
16-Jul-20 13:42 34.102425 -117.224717 93 1164ft 0kts
16-Jul-20 13:43 34.102425 -117.224717 93 1164ft 0kts
16-Jul-20 13:44 34.102425 -117.224717 93 1164ft 0kts
16-Jul-20 13:45 34.102425 -117.224717 93 1164ft 0kts
16-Jul-20 13:46 34.102425 -117.224717 93 1164ft 0kts
16-Jul-20 13:47 34.102425 -117.224717 93 1164ft 0kts
16-Jul-20 13:48 34.102425 -117.224717 93 1164ft 0kts
16-Jul-20 13:49 34.102425 -117.224717 93 1164ft 0kts
16-Jul-20 13:50 34.102425 -117.224717 93 1164ft 0kts
16-Jul-20 13:51 34.102425 -117.224717 93 1164ft 0kts
16-Jul-20 13:52 34.102425 -117.224717 93 1164ft 0kts
16-Jul-20 13:53 34.102425 -117.224717 93 1164ft 0kts
16-Jul-20 13:54 34.102425 -117.224717 93 1164ft 0kts
16-Jul-20 13:55 34.102425 -117.224717 93 1164ft 0kts
16-Jul-20 13:56 34.102425 -117.224717 93 1164ft 0kts
16-Jul-20 13:57 34.102425 -117.224717 93 1164ft 0kts
16-Jul-20 13:58 34.102425 -117.224717 93 1164ft 0kts
16-Jul-20 13:59 34.102425 -117.224717 93 1164ft 0kts
16-Jul-20 14:00 34.102425 -117.224717 93 1164ft 0kts
16-Jul-20 14:01 34.102425 -117.224717 93 1164ft 0kts
16-Jul-20 14:02 34.102425 -117.224717 93 1164ft 0kts
16-Jul-20 14:03 34.102425 -117.224717 93 1164ft 0kts
16-Jul-20 14:04 34.102425 -117.224717 93 1164ft 0kts
16-Jul-20 14:05 34.102425 -117.224717 93 1164ft 0kts
16-Jul-20 14:06 34.102425 -117.224717 93 1164ft 0kts
16-Jul-20 14:07 34.102425 -117.224717 93 1164ft 0kts
16-Jul-20 14:08 34.102425 -117.224717 93 1164ft 0kts
16-Jul-20 14:09 34.102425 -117.224717 93 1164ft 0kts
16-Jul-20 14:10 34.102425 -117.224717 93 1164ft 0kts
16-Jul-20 14:11 34.102425 -117.224717 93 1164ft 0kts
16-Jul-20 14:12 34.102425 -117.224717 93 1164ft 0kts
16-Jul-20 14:13 34.101648 -117.224665 181 1164ft 0kts
16-Jul-20 14:14 34.101205 -117.224532 139 1164ft 14kts
16-Jul-20 14:15 34.100877 -117.219761 160 1164ft 0kts
16-Jul-20 14:16 34.098929 -117.222315 250 1164ft 69kts
16-Jul-20 14:17 34.079249 -117.262203 237 3321ft 179kts
16-Jul-20 14:18 34.042290 -117.316035 234 5423ft 231kts
16-Jul-20 14:19 34.003112 -117.383670 233 6972ft 268kts
16-Jul-20 14:20 33.959250 -117.461917 233 7000ft 283kts
16-Jul-20 14:21 33.913499 -117.539159 238 7015ft 283kts
16-Jul-20 14:22 33.914246 -117.633308 276 7023ft 286kts
16-Jul-20 14:23 33.921860 -117.727857 266 7014ft 279kts
16-Jul-20 14:24 33.869627 -117.782733 178 6997ft 273kts
16-Jul-20 14:25 33.793256 -117.781114 173 7008ft 272kts
16-Jul-20 14:26 33.721755 -117.752702 157 7015ft 270kts
16-Jul-20 14:27 33.649866 -117.726591 170 7028ft 272kts
16-Jul-20 14:28 33.574601 -117.713890 172 7009ft 275kts
16-Jul-20 14:29 33.500340 -117.723267 211 7009ft 277kts
16-Jul-20 14:30 33.465577 -117.802995 258 7014ft 282kts
16-Jul-20 14:31 33.452385 -117.896045 259 7017ft 283kts
16-Jul-20 14:32 33.438952 -117.988910 258 7018ft 283kts
16-Jul-20 14:33 33.425683 -118.079502 259 6115ft 267kts
16-Jul-20 14:34 33.413003 -118.165012 259 4182ft 251kts
16-Jul-20 14:35 33.401957 -118.240342 259 4083ft 213kts
16-Jul-20 14:36 33.403394 -118.300685 283 3984ft 173kts
16-Jul-20 14:37 33.418674 -118.354670 278 2906ft 144kts
16-Jul-20 14:38 33.415786 -118.399160 234 1926ft 118kts
16-Jul-20 14:39 33.402687 -118.419042 57 1609ft 15kts
16-Jul-20 14:40 33.403358 -118.416018 104 1609ft 4kts
16-Jul-20 14:41 33.403347 -118.415936 98 1609ft 0kts
16-Jul-20 14:42 33.403347 -118.415936 98 1609ft 0kts
16-Jul-20 14:43 33.403347 -118.415936 98 1609ft 0kts
16-Jul-20 14:44 33.403112 -118.415849 33 1605ft 0kts

Navigation Log

Ident Type
Flight plan parsing failed, navigation log unavailable